Time;durP1;ratioP1;P1;durP2;ratioP2;P2;SDS_P1;SDS_P2;PMS_P1;PMS_P2;Temp;Humidity;BMP_temperature;BMP_pressure;BME280_temperature;BME280_humidity;BME280_pressure;Samples;Min_cycle;Max_cycle;Signal;HPM_P1;HPM_P2
2023/10/30 00:01:54;;;;;;;1.17;1.00;;;17.60;42.50;;;;;;6019005;23;20154;-86
2023/10/30 00:04:20;;;;;;;1.42;1.10;;;17.70;42.50;;;;;;6066785;23;20146;-87
2023/10/30 00:06:48;;;;;;;0.82;0.82;;;17.70;42.60;;;;;;6066881;23;20158;-87
2023/10/30 00:09:17;;;;;;;1.13;0.90;;;17.70;42.60;;;;;;6041796;23;20157;-86
2023/10/30 00:11:46;;;;;;;1.30;0.98;;;17.60;42.60;;;;;;6116849;23;20639;-85
2023/10/30 00:14:12;;;;;;;1.00;0.80;;;17.60;42.70;;;;;;6030566;23;20158;-88
2023/10/30 00:16:39;;;;;;;0.70;0.70;;;17.70;42.70;;;;;;6100484;23;20182;-87
2023/10/30 00:19:05;;;;;;;1.27;0.88;;;17.60;43.40;;;;;;6139892;23;20189;-86
2023/10/30 00:21:31;;;;;;;1.15;1.05;;;17.70;42.70;;;;;;6076000;23;20160;-88
2023/10/30 00:23:56;;;;;;;1.42;0.98;;;17.60;42.70;;;;;;6052414;23;20151;-86
2023/10/30 00:26:22;;;;;;;1.33;1.00;;;17.70;42.80;;;;;;6095324;23;20156;-86
2023/10/30 00:28:48;;;;;;;1.27;0.93;;;17.60;42.80;;;;;;6047562;23;20244;-86
2023/10/30 00:31:17;;;;;;;1.13;0.80;;;17.60;42.80;;;;;;6071404;23;20157;-87
2023/10/30 00:33:44;;;;;;;1.55;0.90;;;17.60;42.90;;;;;;6048006;23;20163;-86
2023/10/30 00:36:09;;;;;;;1.20;0.90;;;17.60;42.90;;;;;;6023506;23;20152;-86
2023/10/30 00:38:40;;;;;;;1.63;1.02;;;17.60;42.90;;;;;;6047506;23;20191;-86
2023/10/30 00:41:13;;;;;;;0.90;0.90;;;17.60;43.00;;;;;;6047707;23;20174;-87
2023/10/30 00:43:39;;;;;;;1.33;0.88;;;17.60;43.80;;;;;;6048115;23;20153;-87
2023/10/30 00:46:06;;;;;;;1.40;0.98;;;17.60;43.00;;;;;;6047627;23;20988;-87
2023/10/30 00:48:33;;;;;;;0.88;0.88;;;17.50;43.00;;;;;;6048028;23;20137;-87
2023/10/30 00:51:00;;;;;;;1.50;1.10;;;17.60;43.10;;;;;;6047771;23;20133;-87
2023/10/30 00:53:26;;;;;;;1.00;0.90;;;17.60;43.10;;;;;;6092374;23;20156;-85
2023/10/30 00:55:52;;;;;;;1.15;1.05;;;17.60;43.10;;;;;;6100614;23;20155;-86
2023/10/30 00:58:18;;;;;;;1.20;0.90;;;17.60;43.00;;;;;;6126229;23;20298;-86
2023/10/30 01:00:45;;;;;;;1.92;1.23;;;17.60;43.10;;;;;;6081504;23;20159;-85
2023/10/30 01:03:19;;;;;;;0.98;0.95;;;17.60;43.00;;;;;;6081615;23;20148;-86
2023/10/30 01:05:46;;;;;;;1.27;1.00;;;17.60;43.10;;;;;;6106175;23;20159;-87
2023/10/30 01:08:14;;;;;;;1.05;1.00;;;17.60;43.10;;;;;;6081213;23;20190;-86
2023/10/30 01:10:41;;;;;;;1.02;0.90;;;17.60;43.30;;;;;;6056560;23;20285;-85
2023/10/30 01:13:07;;;;;;;1.15;1.05;;;17.50;43.20;;;;;;6104895;23;20249;-87
2023/10/30 01:15:33;;;;;;;1.23;1.08;;;17.50;43.20;;;;;;6154179;23;20510;-85
2023/10/30 01:18:02;;;;;;;1.00;1.00;;;17.50;43.30;;;;;;6129428;23;20657;-86
2023/10/30 01:20:32;;;;;;;1.00;0.90;;;17.50;43.30;;;;;;6056952;23;20155;-86
2023/10/30 01:22:58;;;;;;;1.83;0.93;;;17.50;43.40;;;;;;6056881;23;20159;-87
2023/10/30 01:25:24;;;;;;;1.58;1.20;;;17.60;43.30;;;;;;6080978;23;20148;-88
2023/10/30 01:27:50;;;;;;;0.70;0.70;;;17.60;43.30;;;;;;6104392;23;20252;-86
2023/10/30 01:30:19;;;;;;;1.08;0.90;;;17.60;43.40;;;;;;6104604;23;20695;-87
2023/10/30 01:32:46;;;;;;;1.95;1.10;;;17.50;43.40;;;;;;6056328;23;20508;-86
2023/10/30 01:35:15;;;;;;;1.00;0.90;;;17.50;43.50;;;;;;6104474;23;20163;-85
2023/10/30 01:37:43;;;;;;;1.17;1.08;;;17.50;43.50;;;;;;6076093;23;20265;-86
2023/10/30 01:40:10;;;;;;;0.90;0.90;;;17.50;43.70;;;;;;6134174;23;20154;-87
2023/10/30 01:42:36;;;;;;;1.10;1.00;;;17.50;43.70;;;;;;6135017;23;20158;-87
2023/10/30 01:45:04;;;;;;;0.90;0.90;;;17.50;43.70;;;;;;6159346;23;20147;-87
2023/10/30 01:47:31;;;;;;;1.73;1.10;;;17.50;43.70;;;;;;6086460;23;20154;-86
2023/10/30 01:49:57;;;;;;;1.02;0.90;;;17.50;43.70;;;;;;6159744;23;20217;-86
2023/10/30 01:52:26;;;;;;;0.80;0.80;;;17.50;43.60;;;;;;6184200;23;20143;-86
2023/10/30 01:54:56;;;;;;;0.90;0.90;;;17.60;43.80;;;;;;6183825;23;20166;-87
2023/10/30 01:57:22;;;;;;;1.23;1.00;;;17.50;43.70;;;;;;6133927;23;20182;-86
2023/10/30 01:59:51;;;;;;;1.10;1.00;;;17.50;43.70;;;;;;6135466;23;20475;-86
2023/10/30 02:02:19;;;;;;;0.90;0.85;;;17.40;43.70;;;;;;6135174;23;20138;-85
2023/10/30 02:04:46;;;;;;;1.48;1.00;;;17.40;43.70;;;;;;6135040;23;20150;-85
2023/10/30 02:07:12;;;;;;;1.25;1.08;;;17.50;44.40;;;;;;6135405;23;20151;-86
2023/10/30 02:09:39;;;;;;;1.10;1.00;;;17.40;43.70;;;;;;6160897;23;20151;-86
2023/10/30 02:12:06;;;;;;;1.00;0.90;;;17.50;43.90;;;;;;6113859;23;20154;-87
2023/10/30 02:14:32;;;;;;;1.10;1.00;;;17.40;43.80;;;;;;6164491;23;20250;-85
2023/10/30 02:17:01;;;;;;;1.00;0.90;;;17.50;43.90;;;;;;6164645;23;20181;-86
2023/10/30 02:19:30;;;;;;;1.13;1.02;;;17.50;43.90;;;;;;6141388;23;20204;-86
2023/10/30 02:21:58;;;;;;;0.80;0.80;;;17.50;44.50;;;;;;6190181;23;20154;-87
2023/10/30 02:24:24;;;;;;;1.25;0.77;;;17.50;43.90;;;;;;6164770;23;20130;-87
2023/10/30 02:26:50;;;;;;;1.10;1.00;;;17.50;44.00;;;;;;6189143;23;20141;-88
2023/10/30 02:29:18;;;;;;;1.10;1.00;;;17.50;44.00;;;;;;6139581;23;20468;-87
2023/10/30 02:31:47;;;;;;;0.88;0.85;;;17.40;44.00;;;;;;6162835;23;20182;-88
2023/10/30 02:34:13;;;;;;;1.10;1.00;;;17.40;43.90;;;;;;6090659;23;20164;-87
2023/10/30 02:36:39;;;;;;;1.90;1.13;;;17.50;44.00;;;;;;6140174;23;20154;-88
2023/10/30 02:39:07;;;;;;;0.88;0.88;;;17.50;44.00;;;;;;6164139;23;20180;-87
2023/10/30 02:41:37;;;;;;;1.10;1.00;;;17.50;44.00;;;;;;6165182;23;20236;-87
2023/10/30 02:44:03;;;;;;;1.00;0.90;;;17.50;44.10;;;;;;6114215;23;20146;-88
2023/10/30 02:46:29;;;;;;;1.00;0.80;;;17.50;44.10;;;;;;6164629;23;20141;-88
2023/10/30 02:48:56;;;;;;;1.20;0.98;;;17.50;44.00;;;;;;6114419;23;20659;-88
2023/10/30 02:51:21;;;;;;;0.93;0.90;;;17.40;44.00;;;;;;6164182;23;20573;-87
2023/10/30 02:53:50;;;;;;;0.80;0.80;;;17.40;44.20;;;;;;6139020;23;20142;-88
2023/10/30 02:56:16;;;;;;;1.10;1.00;;;17.40;44.10;;;;;;6140440;23;20146;-87
2023/10/30 02:58:47;;;;;;;0.98;0.88;;;17.40;44.10;;;;;;6139427;23;20177;-88
2023/10/30 03:01:13;;;;;;;1.15;1.05;;;17.40;44.10;;;;;;6114525;23;20162;-87
2023/10/30 03:03:39;;;;;;;1.20;0.90;;;17.40;44.10;;;;;;6128034;23;20155;-87
2023/10/30 03:06:06;;;;;;;1.10;1.00;;;17.40;44.20;;;;;;6104642;23;20626;-86
2023/10/30 03:08:32;;;;;;;1.45;1.10;;;17.40;44.20;;;;;;6103453;23;20595;-88
2023/10/30 03:10:58;;;;;;;1.15;1.00;;;17.40;44.20;;;;;;6073521;23;20214;-88
2023/10/30 03:13:23;;;;;;;1.45;1.00;;;17.40;44.20;;;;;;6049690;23;20160;-87
2023/10/30 03:15:49;;;;;;;0.95;0.90;;;17.40;44.30;;;;;;6098054;23;20702;-87
2023/10/30 03:18:16;;;;;;;2.03;0.95;;;17.40;44.20;;;;;;6049664;23;20180;-87
2023/10/30 03:20:42;;;;;;;1.00;0.90;;;17.40;44.20;;;;;;6073579;23;20152;-88
2023/10/30 03:23:08;;;;;;;1.02;0.90;;;17.40;44.20;;;;;;6074135;23;20240;-87
2023/10/30 03:25:34;;;;;;;0.80;0.80;;;17.40;44.20;;;;;;6097738;23;20176;-89
2023/10/30 03:28:00;;;;;;;0.80;0.80;;;17.40;44.20;;;;;;6073664;23;20152;-87
2023/10/30 03:30:28;;;;;;;1.05;0.93;;;17.40;44.30;;;;;;6073882;23;20175;-87
2023/10/30 03:32:53;;;;;;;1.42;1.00;;;17.40;44.30;;;;;;6050022;23;20273;-88
2023/10/30 03:35:23;;;;;;;2.20;1.02;;;17.40;44.50;;;;;;6096575;23;20152;-87
2023/10/30 03:37:48;;;;;;;1.35;1.13;;;17.40;44.40;;;;;;6127556;23;20225;-88
2023/10/30 03:40:14;;;;;;;1.10;1.00;;;17.40;44.40;;;;;;6102558;23;20591;-86
2023/10/30 03:42:40;;;;;;;0.90;0.90;;;17.40;44.40;;;;;;6102541;23;20595;-88
2023/10/30 03:45:09;;;;;;;0.75;0.75;;;17.40;44.40;;;;;;6128244;23;20144;-88
2023/10/30 03:47:35;;;;;;;1.50;1.33;;;17.40;44.50;;;;;;6139684;23;20209;-87
2023/10/30 03:50:01;;;;;;;0.80;0.70;;;17.40;44.50;;;;;;6163814;23;20146;-88
2023/10/30 03:52:27;;;;;;;1.38;0.82;;;17.40;44.50;;;;;;6139398;23;20150;-89
2023/10/30 03:55:03;;;;;;;1.33;1.00;;;17.40;44.50;;;;;;6138920;23;20142;-87
2023/10/30 03:57:29;;;;;;;1.05;0.95;;;17.30;44.50;;;;;;6119350;23;20169;-87
2023/10/30 03:59:58;;;;;;;1.35;0.88;;;17.40;44.50;;;;;;6163933;23;20241;-87
2023/10/30 04:02:31;;;;;;;1.00;0.80;;;17.40;44.50;;;;;;6140078;23;20151;-87
2023/10/30 04:05:00;;;;;;;1.10;0.98;;;17.40;44.50;;;;;;6190438;23;20585;-87
2023/10/30 04:07:26;;;;;;;0.80;0.80;;;17.40;44.50;;;;;;6139677;23;20407;-88
2023/10/30 04:09:54;;;;;;;1.20;1.00;;;17.30;44.50;;;;;;6008165;23;3636074;-86
2023/10/30 04:12:28;;;;;;;2.03;1.13;;;17.40;44.60;;;;;;6190713;23;20188;-87
2023/10/30 04:14:57;;;;;;;1.02;1.00;;;17.40;44.60;;;;;;6116119;23;20176;-87
2023/10/30 09:30:48;;;;;;;8.00;0.93;;;17.90;42.10;;;;;;6237074;22;20242;-84
2023/10/30 09:33:13;;;;;;;4.40;1.23;;;18.00;42.20;;;;;;6153259;23;20150;-84
2023/10/30 09:35:42;;;;;;;6.57;1.35;;;18.00;42.20;;;;;;6142094;23;20513;-85
2023/10/30 09:38:12;;;;;;;8.15;1.30;;;18.00;42.20;;;;;;6142296;23;20618;-83
2023/10/30 09:40:40;;;;;;;10.23;1.58;;;18.00;42.20;;;;;;6142796;23;20150;-85
2023/10/30 09:43:09;;;;;;;8.50;1.25;;;18.00;42.10;;;;;;6140466;23;20138;-84
2023/10/30 09:45:36;;;;;;;6.15;0.90;;;18.00;42.10;;;;;;6115619;23;20154;-85
2023/10/30 09:48:04;;;;;;;5.55;1.00;;;18.00;42.10;;;;;;6167537;23;20138;-84
2023/10/30 09:50:33;;;;;;;5.80;1.00;;;18.00;42.10;;;;;;6097752;23;20154;-83
2023/10/30 09:52:59;;;;;;;4.82;0.93;;;18.10;42.00;;;;;;6123387;23;20154;-84
2023/10/30 09:55:28;;;;;;;4.90;1.05;;;18.00;41.90;;;;;;6223456;23;20133;-83
2023/10/30 09:57:53;;;;;;;3.72;1.02;;;18.10;41.90;;;;;;6098028;23;20173;-85
2023/10/30 10:00:21;;;;;;;5.40;1.23;;;18.00;42.00;;;;;;6172636;23;20146;-85
2023/10/30 10:02:47;;;;;;;3.85;1.00;;;18.10;42.20;;;;;;6148006;23;20172;-86
2023/10/30 10:05:15;;;;;;;3.38;1.00;;;18.00;42.10;;;;;;6197334;23;20566;-84
2023/10/30 10:07:40;;;;;;;5.60;0.95;;;18.00;41.90;;;;;;6144535;23;20146;-85
2023/10/30 10:10:08;;;;;;;3.30;0.98;;;18.10;42.00;;;;;;6168315;23;20150;-83
2023/10/30 10:12:34;;;;;;;4.53;1.00;;;18.10;42.00;;;;;;6167639;23;20152;-85
2023/10/30 10:15:06;;;;;;;3.97;1.00;;;18.10;41.90;;;;;;6143205;23;20173;-85
2023/10/30 10:17:44;;;;;;;1.67;0.73;;;18.10;41.90;;;;;;6172420;23;20154;-86
2023/10/30 10:20:11;;;;;;;7.63;1.20;;;18.10;41.90;;;;;;6193493;23;20149;-86
2023/10/30 10:22:36;;;;;;;2.00;0.90;;;18.10;42.00;;;;;;6168116;23;20130;-85
2023/10/30 10:25:02;;;;;;;2.78;0.85;;;18.10;42.10;;;;;;6193306;23;20225;-85
2023/10/30 10:27:28;;;;;;;2.25;0.90;;;18.10;42.00;;;;;;6193091;23;20134;-85
2023/10/30 10:29:55;;;;;;;3.97;0.90;;;18.10;42.00;;;;;;6160929;23;20186;-84
2023/10/30 10:32:26;;;;;;;2.08;0.75;;;18.10;42.00;;;;;;6162910;23;20135;-85
2023/10/30 10:34:55;;;;;;;8.73;0.93;;;18.10;42.10;;;;;;6161113;23;20143;-85
2023/10/30 10:37:21;;;;;;;3.80;0.82;;;18.10;41.90;;;;;;6161146;23;20139;-86
2023/10/30 10:39:50;;;;;;;8.15;1.17;;;18.10;41.90;;;;;;6160888;23;20154;-84
2023/10/30 10:42:19;;;;;;;6.03;1.05;;;18.20;42.00;;;;;;6162596;23;20131;-85
2023/10/30 10:44:45;;;;;;;2.97;1.17;;;18.10;42.00;;;;;;6162191;23;20173;-85
2023/10/30 10:47:16;;;;;;;4.63;1.20;;;18.10;42.00;;;;;;6164562;23;20158;-84
2023/10/30 10:49:43;;;;;;;5.18;1.25;;;18.10;42.10;;;;;;6141351;23;20154;-84
2023/10/30 10:52:15;;;;;;;5.78;0.98;;;18.10;42.10;;;;;;6191477;23;20170;-85
2023/10/30 10:55:03;;;;;;;10.50;1.25;;;18.20;42.30;;;;;;6092512;23;20153;-84
2023/10/30 10:57:31;;;;;;;4.57;1.05;;;18.10;42.30;;;;;;6166424;23;20135;-85
2023/10/30 11:00:00;;;;;;;4.93;1.23;;;18.10;42.20;;;;;;6170844;23;20498;-85
2023/10/30 11:02:29;;;;;;;6.50;1.02;;;18.10;42.30;;;;;;6166802;23;20217;-84
2023/10/30 11:05:00;;;;;;;2.75;1.30;;;18.10;42.30;;;;;;6167433;23;20211;-86
2023/10/30 11:07:50;;;;;;;6.10;1.00;;;18.10;42.30;;;;;;6110654;23;20150;-86
2023/10/30 11:10:22;;;;;;;2.97;1.00;;;18.10;42.50;;;;;;6139490;23;20153;-85
2023/10/30 11:13:14;;;;;;;4.10;1.00;;;18.20;42.50;;;;;;6184158;23;20222;-85
2023/10/30 11:15:49;;;;;;;2.90;0.90;;;18.10;42.50;;;;;;6187623;23;20162;-85
2023/10/30 11:18:17;;;;;;;1.77;0.88;;;18.10;42.60;;;;;;6188662;23;20170;-86
2023/10/30 11:20:43;;;;;;;2.10;0.73;;;18.10;42.50;;;;;;6185467;23;20130;-86
2023/10/30 11:23:09;;;;;;;5.97;1.10;;;18.20;42.60;;;;;;6160513;23;20182;-86
2023/10/30 11:25:54;;;;;;;2.25;0.85;;;18.20;42.60;;;;;;6160527;23;20135;-86
2023/10/30 11:28:22;;;;;;;6.50;0.90;;;18.20;42.60;;;;;;6090209;23;20198;-86
2023/10/30 11:30:49;;;;;;;4.32;1.20;;;18.20;42.60;;;;;;6158984;23;20202;-85
2023/10/30 11:33:20;;;;;;;4.22;1.20;;;18.20;42.60;;;;;;6161784;23;20169;-87
2023/10/30 11:35:52;;;;;;;6.97;1.10;;;18.20;42.80;;;;;;6138830;23;20608;-84
2023/10/30 11:38:20;;;;;;;3.35;1.10;;;18.20;42.80;;;;;;6134345;23;20182;-86
2023/10/30 11:41:03;;;;;;;8.23;1.00;;;18.10;42.90;;;;;;6159104;23;20147;-85
2023/10/30 11:43:33;;;;;;;1.33;0.82;;;18.10;42.80;;;;;;6184747;23;20555;-84
2023/10/30 11:46:03;;;;;;;2.30;1.00;;;18.20;42.90;;;;;;6159280;23;20131;-86
2023/10/30 11:48:30;;;;;;;5.22;1.00;;;18.20;42.80;;;;;;6160630;23;20162;-86
2023/10/30 11:50:57;;;;;;;3.40;0.93;;;18.10;42.80;;;;;;6137865;23;20135;-85
2023/10/30 11:53:27;;;;;;;5.13;1.25;;;18.20;42.90;;;;;;6159659;23;20143;-86
2023/10/30 11:55:53;;;;;;;5.57;0.98;;;18.10;42.80;;;;;;6185424;23;20182;-86
2023/10/30 11:58:20;;;;;;;5.65;0.88;;;18.10;42.80;;;;;;6162904;23;20178;-85
2023/10/30 12:00:47;;;;;;;2.17;0.90;;;18.10;43.00;;;;;;6163239;23;20143;-85
2023/10/30 12:03:15;;;;;;;5.15;1.20;;;18.20;42.90;;;;;;6165938;23;20135;-86
2023/10/30 12:05:41;;;;;;;5.00;1.13;;;18.20;42.90;;;;;;6145566;23;20169;-85
2023/10/30 12:08:09;;;;;;;2.92;1.45;;;18.20;42.90;;;;;;6166969;23;20151;-87
2023/10/30 12:10:37;;;;;;;3.63;0.90;;;18.20;43.00;;;;;;6167409;23;20135;-85
2023/10/30 12:13:04;;;;;;;1.80;1.10;;;18.10;43.00;;;;;;6141375;23;20164;-85
2023/10/30 12:15:30;;;;;;;4.28;0.98;;;18.10;43.10;;;;;;6144072;23;20637;-85
2023/10/30 12:17:56;;;;;;;1.75;0.88;;;18.10;43.10;;;;;;6167491;23;20163;-85
2023/10/30 12:20:22;;;;;;;4.35;1.10;;;18.10;43.20;;;;;;6144654;23;20147;-84
2023/10/30 12:22:48;;;;;;;2.90;0.82;;;18.10;43.10;;;;;;6166082;23;20142;-85
2023/10/30 12:25:16;;;;;;;3.00;1.02;;;18.20;43.10;;;;;;6191579;23;20131;-86
2023/10/30 12:27:42;;;;;;;1.75;0.90;;;18.20;43.00;;;;;;6115302;23;20178;-85
2023/10/30 12:30:13;;;;;;;3.83;0.90;;;18.30;42.90;;;;;;6190132;23;20201;-85
2023/10/30 12:32:39;;;;;;;3.45;0.95;;;18.30;43.00;;;;;;6165632;23;20127;-85
2023/10/30 12:35:13;;;;;;;2.75;0.88;;;18.30;42.90;;;;;;6189860;23;20131;-85
2023/10/30 12:37:42;;;;;;;3.00;1.05;;;18.30;42.90;;;;;;6164783;23;20142;-85
2023/10/30 12:40:12;;;;;;;1.15;0.95;;;18.30;43.80;;;;;;6166584;23;20146;-85
2023/10/30 12:42:39;;;;;;;1.45;0.77;;;18.20;43.20;;;;;;6140370;23;20143;-85
2023/10/30 12:45:07;;;;;;;3.25;1.10;;;18.20;43.10;;;;;;6166086;23;20221;-85
2023/10/30 12:47:34;;;;;;;2.83;1.05;;;18.20;43.20;;;;;;6166713;23;20154;-86
2023/10/30 12:50:05;;;;;;;2.22;1.02;;;18.20;43.30;;;;;;6144123;23;20474;-83
2023/10/30 12:52:31;;;;;;;2.30;0.90;;;18.20;43.40;;;;;;6141826;23;20178;-85
2023/10/30 12:55:00;;;;;;;1.80;0.77;;;18.20;43.50;;;;;;6189305;23;20132;-84
2023/10/30 12:57:26;;;;;;;3.05;1.00;;;18.20;43.50;;;;;;6139927;23;20151;-85
2023/10/30 12:59:52;;;;;;;2.90;1.00;;;18.10;43.60;;;;;;6137922;23;20139;-85
2023/10/30 13:02:18;;;;;;;2.90;0.93;;;18.20;43.60;;;;;;6162395;23;20146;-85
2023/10/30 13:04:43;;;;;;;1.48;0.80;;;18.20;43.70;;;;;;6165500;23;20139;-83
2023/10/30 13:07:09;;;;;;;2.65;1.15;;;18.20;43.70;;;;;;6172777;23;20135;-85
2023/10/30 13:09:35;;;;;;;2.80;0.80;;;18.20;43.70;;;;;;6150428;23;20150;-85
2023/10/30 13:12:03;;;;;;;0.80;0.75;;;18.20;43.60;;;;;;6149562;23;20131;-86
2023/10/30 13:14:29;;;;;;;4.10;0.90;;;18.20;43.50;;;;;;6198534;23;20178;-85
2023/10/30 13:17:01;;;;;;;1.20;1.00;;;18.20;43.60;;;;;;6170600;23;20134;-86
2023/10/30 13:19:26;;;;;;;2.42;0.88;;;18.20;43.60;;;;;;6146302;23;20170;-85
2023/10/30 13:21:55;;;;;;;1.13;1.00;;;18.30;43.70;;;;;;6146666;23;20136;-85
2023/10/30 13:24:23;;;;;;;1.52;0.93;;;18.10;43.60;;;;;;6175127;23;20151;-86
2023/10/30 13:26:52;;;;;;;1.95;0.90;;;18.20;43.80;;;;;;6176311;23;20136;-86
2023/10/30 13:29:18;;;;;;;1.80;0.90;;;18.20;43.90;;;;;;6173555;23;20150;-87
2023/10/30 13:31:45;;;;;;;2.67;1.05;;;18.20;43.90;;;;;;6148594;23;20162;-86
2023/10/30 13:34:16;;;;;;;1.20;0.98;;;18.30;43.90;;;;;;6151467;23;20150;-86
2023/10/30 13:36:46;;;;;;;1.10;0.93;;;18.30;44.00;;;;;;6177722;23;20566;-86
2023/10/30 13:39:13;;;;;;;1.17;1.05;;;18.30;44.00;;;;;;6172645;23;20169;-85
2023/10/30 13:41:41;;;;;;;2.17;0.85;;;18.30;44.00;;;;;;6147829;23;20150;-85
2023/10/30 13:44:07;;;;;;;2.00;0.70;;;18.20;44.00;;;;;;6148448;23;20154;-86
2023/10/30 13:46:35;;;;;;;1.45;0.90;;;18.20;44.00;;;;;;6199628;23;20434;-87
2023/10/30 13:49:05;;;;;;;1.10;1.00;;;18.20;44.00;;;;;;6146564;23;20173;-86
2023/10/30 13:51:31;;;;;;;0.85;0.85;;;18.30;44.10;;;;;;6171941;23;20217;-86
2023/10/30 13:53:57;;;;;;;1.23;0.93;;;18.20;44.00;;;;;;6171626;23;20210;-86
2023/10/30 13:56:23;;;;;;;1.23;0.90;;;18.20;44.10;;;;;;6196735;23;20127;-86
2023/10/30 13:58:50;;;;;;;1.13;1.00;;;18.20;44.20;;;;;;6147124;23;20253;-86
2023/10/30 14:01:18;;;;;;;2.10;0.70;;;18.20;44.30;;;;;;6169960;23;20142;-86
2023/10/30 14:03:43;;;;;;;1.30;1.05;;;18.20;44.30;;;;;;6172088;23;20209;-86
2023/10/30 14:06:09;;;;;;;1.15;1.02;;;18.20;44.30;;;;;;6222108;23;20161;-86
2023/10/30 14:08:35;;;;;;;2.10;1.00;;;18.20;44.30;;;;;;6167591;23;20233;-85
2023/10/30 14:11:02;;;;;;;0.80;0.80;;;18.30;44.40;;;;;;6191231;23;20550;-86
2023/10/30 14:13:27;;;;;;;1.02;0.95;;;18.30;44.50;;;;;;6141641;23;20164;-86
2023/10/30 14:15:53;;;;;;;0.70;0.70;;;18.30;44.50;;;;;;6169856;23;20162;-86
2023/10/30 14:18:19;;;;;;;1.20;1.10;;;18.20;44.50;;;;;;6144656;23;20173;-85
2023/10/30 14:20:44;;;;;;;1.50;0.95;;;18.30;44.60;;;;;;6166243;23;20138;-85
2023/10/30 14:23:10;;;;;;;1.20;1.00;;;18.30;44.60;;;;;;6166308;23;20141;-85
2023/10/30 14:25:37;;;;;;;2.63;1.10;;;18.30;44.60;;;;;;6217184;23;20134;-86
2023/10/30 14:28:04;;;;;;;1.17;1.00;;;18.30;44.60;;;;;;6140279;23;20158;-84
2023/10/30 14:30:30;;;;;;;0.73;0.73;;;18.30;44.60;;;;;;6165558;23;20193;-85
2023/10/30 14:33:00;;;;;;;1.10;0.90;;;18.20;44.60;;;;;;6190255;23;20158;-85
2023/10/30 14:35:26;;;;;;;1.42;1.02;;;18.30;44.80;;;;;;6139915;23;20160;-84
2023/10/30 14:37:52;;;;;;;1.20;1.10;;;18.20;44.70;;;;;;6190773;23;20197;-85
2023/10/30 14:40:18;;;;;;;0.88;0.85;;;18.20;44.70;;;;;;6191972;23;20462;-85
2023/10/30 14:42:43;;;;;;;1.10;1.00;;;18.20;44.80;;;;;;6167566;23;20519;-85
2023/10/30 14:45:15;;;;;;;1.80;0.90;;;18.20;44.70;;;;;;6166824;23;20566;-85
2023/10/30 14:47:41;;;;;;;1.42;1.00;;;18.30;45.00;;;;;;6092691;23;20586;-85
2023/10/30 14:50:07;;;;;;;2.70;1.20;;;18.30;44.90;;;;;;6166875;23;20154;-84
2023/10/30 14:52:32;;;;;;;1.13;1.00;;;18.20;45.00;;;;;;6191418;23;20145;-86
2023/10/30 14:54:59;;;;;;;1.90;1.10;;;18.20;45.00;;;;;;6167582;23;20154;-85
2023/10/30 14:57:25;;;;;;;1.02;0.93;;;18.20;45.00;;;;;;6141440;23;20648;-85
2023/10/30 14:59:54;;;;;;;1.25;1.15;;;18.20;45.10;;;;;;6167101;23;20201;-85
2023/10/30 15:02:20;;;;;;;1.50;1.10;;;18.20;45.10;;;;;;6167990;23;20169;-84
2023/10/30 15:04:46;;;;;;;1.15;1.05;;;18.20;45.10;;;;;;6219043;23;20563;-85
2023/10/30 15:07:12;;;;;;;1.30;1.20;;;18.30;45.10;;;;;;6190950;23;20131;-86
2023/10/30 15:09:39;;;;;;;2.53;1.13;;;18.30;45.00;;;;;;6140732;23;20160;-84
2023/10/30 15:12:05;;;;;;;1.13;1.02;;;18.30;45.10;;;;;;6191562;23;20184;-83
2023/10/30 15:14:31;;;;;;;1.33;0.90;;;18.30;45.10;;;;;;6191547;23;20149;-84
2023/10/30 15:16:57;;;;;;;0.95;0.95;;;18.20;45.10;;;;;;6217490;23;20351;-84
2023/10/30 15:19:24;;;;;;;1.25;1.00;;;18.30;45.10;;;;;;6167298;23;20169;-84
2023/10/30 15:21:50;;;;;;;0.80;0.80;;;18.30;45.20;;;;;;6167195;23;20165;-85
2023/10/30 15:24:21;;;;;;;1.05;0.95;;;18.30;45.20;;;;;;6217443;23;20134;-86
2023/10/30 15:26:46;;;;;;;2.15;0.90;;;18.20;45.20;;;;;;6190685;23;20162;-86
2023/10/30 15:29:14;;;;;;;0.85;0.82;;;18.30;45.30;;;;;;6194427;23;20141;-85
2023/10/30 15:31:42;;;;;;;1.92;1.20;;;18.30;45.30;;;;;;6170815;23;20138;-86
2023/10/30 15:34:08;;;;;;;1.20;0.98;;;18.20;45.40;;;;;;6171838;23;20150;-86
2023/10/30 15:36:34;;;;;;;1.45;0.93;;;18.20;45.40;;;;;;6192778;23;20134;-87
2023/10/30 15:39:00;;;;;;;0.90;0.90;;;18.20;45.50;;;;;;6190786;23;20185;-85
2023/10/30 15:41:27;;;;;;;0.85;0.85;;;18.20;45.50;;;;;;6166486;23;20150;-86
2023/10/30 15:43:53;;;;;;;1.10;1.00;;;18.30;45.60;;;;;;6191964;23;20135;-84
2023/10/30 15:46:20;;;;;;;1.38;1.15;;;18.30;45.70;;;;;;6166565;23;20181;-86
2023/10/30 15:48:49;;;;;;;1.10;1.00;;;18.30;45.60;;;;;;6168434;23;20209;-85
2023/10/30 15:51:16;;;;;;;1.08;1.00;;;18.30;45.70;;;;;;6169845;23;20150;-85
2023/10/30 15:53:42;;;;;;;2.30;1.35;;;18.30;45.70;;;;;;6191902;23;20185;-86
2023/10/30 15:56:07;;;;;;;1.50;1.08;;;18.30;45.70;;;;;;6168208;23;20664;-85
2023/10/30 15:58:33;;;;;;;1.00;0.90;;;18.30;45.80;;;;;;6193059;23;20172;-85
2023/10/30 16:00:59;;;;;;;1.27;1.17;;;18.20;45.80;;;;;;6142550;23;20152;-84
2023/10/30 16:03:25;;;;;;;1.20;1.10;;;18.30;45.90;;;;;;6191621;23;20706;-84
2023/10/30 16:05:50;;;;;;;1.20;1.10;;;18.30;45.90;;;;;;6192290;23;20166;-85
2023/10/30 16:08:16;;;;;;;1.75;1.17;;;18.30;45.90;;;;;;6195817;23;20146;-85
2023/10/30 16:10:43;;;;;;;0.95;0.93;;;18.30;46.00;;;;;;6172370;23;20131;-86
2023/10/30 16:13:10;;;;;;;2.15;1.25;;;18.30;46.00;;;;;;6146581;23;20217;-84
2023/10/30 16:15:40;;;;;;;2.08;1.33;;;18.30;46.00;;;;;;6146240;23;20525;-85
2023/10/30 16:18:07;;;;;;;1.50;1.20;;;18.30;46.00;;;;;;6195170;23;20158;-86
2023/10/30 16:20:37;;;;;;;1.25;1.00;;;18.30;46.00;;;;;;6160106;23;20155;-87
2023/10/30 16:23:03;;;;;;;1.95;1.33;;;18.30;46.10;;;;;;6088141;23;20540;-87
2023/10/30 16:25:32;;;;;;;1.20;1.10;;;18.30;46.10;;;;;;6110099;23;20251;-86
2023/10/30 16:27:58;;;;;;;1.27;1.17;;;18.30;46.30;;;;;;6133827;23;20187;-87
2023/10/30 16:30:24;;;;;;;1.25;1.10;;;18.30;46.30;;;;;;6086985;23;20259;-85
2023/10/30 16:33:19;;;;;;;1.13;1.02;;;18.20;46.40;;;;;;6110938;23;20160;-86
2023/10/30 16:35:46;;;;;;;2.72;1.23;;;18.30;46.50;;;;;;6114769;23;20151;-85
2023/10/30 16:38:13;;;;;;;3.65;1.08;;;18.30;46.50;;;;;;6111777;23;20176;-87
2023/10/30 16:40:42;;;;;;;1.42;1.17;;;18.30;46.60;;;;;;6110346;23;20155;-86
2023/10/30 16:43:08;;;;;;;4.35;1.30;;;18.30;46.60;;;;;;6109586;23;20231;-86
2023/10/30 16:45:34;;;;;;;4.45;1.10;;;18.30;46.60;;;;;;6107565;23;20152;-85
2023/10/30 16:48:00;;;;;;;5.53;1.20;;;18.30;46.60;;;;;;6134307;23;20135;-87
2023/10/30 16:50:25;;;;;;;2.78;1.20;;;18.40;46.70;;;;;;6112086;23;20642;-86
2023/10/30 16:52:51;;;;;;;3.75;1.40;;;18.40;46.70;;;;;;6139508;23;20226;-86
2023/10/30 16:55:19;;;;;;;5.30;1.38;;;18.40;47.30;;;;;;6188767;23;20131;-86
2023/10/30 16:57:45;;;;;;;4.07;1.52;;;18.40;46.90;;;;;;6163503;23;20570;-86
2023/10/30 17:00:11;;;;;;;2.83;1.10;;;18.40;46.80;;;;;;6187042;23;20146;-85
2023/10/30 17:02:37;;;;;;;2.17;1.13;;;18.40;46.90;;;;;;6138492;23;20145;-85
2023/10/30 17:05:03;;;;;;;2.33;1.42;;;18.40;47.00;;;;;;6187055;23;20155;-86
2023/10/30 17:07:29;;;;;;;2.30;1.30;;;18.40;47.00;;;;;;6161288;23;20213;-86
2023/10/30 17:09:55;;;;;;;2.17;1.20;;;18.40;47.00;;;;;;6186099;23;20570;-85
2023/10/30 17:12:20;;;;;;;2.53;1.30;;;18.40;47.10;;;;;;6187926;23;20139;-85
2023/10/30 17:14:53;;;;;;;2.40;1.20;;;18.40;47.10;;;;;;6187503;23;20138;-86
2023/10/30 17:17:20;;;;;;;3.90;1.33;;;18.40;47.10;;;;;;6163560;23;20151;-85
2023/10/30 17:19:46;;;;;;;5.25;1.33;;;18.40;47.20;;;;;;6187942;23;20269;-86
2023/10/30 17:22:12;;;;;;;4.40;1.55;;;18.40;47.30;;;;;;6163268;23;20139;-86
2023/10/30 17:24:38;;;;;;;5.65;1.38;;;18.40;47.30;;;;;;6163222;23;20163;-85
2023/10/30 17:27:04;;;;;;;7.38;1.98;;;18.40;47.40;;;;;;6160536;23;20142;-84
2023/10/30 17:29:29;;;;;;;9.20;1.92;;;18.40;47.50;;;;;;6159356;23;20213;-86
2023/10/30 17:31:55;;;;;;;3.60;1.75;;;18.40;47.50;;;;;;6135137;23;20237;-86
2023/10/30 17:34:21;;;;;;;12.38;2.13;;;18.40;47.60;;;;;;6159779;23;20600;-86
2023/10/30 17:36:46;;;;;;;8.50;1.75;;;18.50;47.80;;;;;;6159545;23;20606;-85
2023/10/30 17:39:13;;;;;;;8.13;2.05;;;18.40;47.70;;;;;;6138347;23;20179;-86
2023/10/30 17:41:39;;;;;;;10.80;1.90;;;18.40;47.70;;;;;;6185767;23;20158;-83
2023/10/30 17:44:04;;;;;;;7.07;1.90;;;18.50;48.00;;;;;;6185605;23;20131;-86
2023/10/30 17:46:30;;;;;;;12.52;1.98;;;18.50;47.90;;;;;;6185154;23;20154;-84
2023/10/30 17:48:56;;;;;;;6.60;1.98;;;18.50;48.00;;;;;;6160650;23;20154;-86
2023/10/30 17:51:22;;;;;;;13.98;1.75;;;18.40;47.80;;;;;;6184983;23;20135;-84
2023/10/30 17:53:48;;;;;;;12.73;1.98;;;18.40;47.90;;;;;;6186408;23;20155;-84
2023/10/30 17:56:14;;;;;;;8.77;1.80;;;18.50;48.00;;;;;;6186263;23;20138;-85
2023/10/30 17:58:39;;;;;;;7.18;1.52;;;18.50;48.00;;;;;;6161345;23;20521;-86
2023/10/30 18:01:10;;;;;;;10.48;1.92;;;18.40;47.90;;;;;;6187143;23;20217;-82